Terminal Aerodrome Forecast
Issued by NWS

Home | Current Version | Previous Version | Text Only | Print | Product List | Glossary On
Versions: 1 2 3 4 5 6 7 8 9 10 11 12 13 14 15 16 17 18 19 20 21 22 23 24
000
FTUS45 KGJT 262333
TAFMTJ
TAF
KMTJ 262333Z 2700/2724 32007KT P6SM SKC
      TEMPO 2700/2702 29010G20KT
     FM270200 19005KT P6SM SCT250
     FM270400 15009KT P6SM SCT200
     FM271000 14010G19KT P6SM SCT200
     FM271500 18010KT P6SM FEW250
     FM271600 21011G20KT P6SM FEW250=

USA.gov is the U.S. government's official web portal to all federal, state and local government web resources and services.